Платов

Карта отелей и гостиниц, располагающихся рядом с аэропортом Платов :

Платов
Ростов-на-Дону
Ростовская область 47° 29' 38.3784" N, 39° 55' 29.3196" E
Код аэродрома ИКАО
URRP
Код аэродрома RU
УРРП
Координаты
N47.49399° E039.92481°
Превышение над уровнем моря
86
Основная полоса
05/23
Курс магнитный
046,2/226,2
Длина основной ВПП
3600
Ширина основной ВПП
45
Покрытие основной ВПП
Твёрдое (железобетон)
Освещение ВПП
Постоянное
Тип: 
Аэродром
Класс аэродрома: 
Международный
Принадлежность: 
ГА
Статус: 
Действующий
Сайт: 
http://platov.aero
E-mail аэродрома: 
rai-info@ar-management.ru
Страна: 
Россия
Регион: 
Ростовская область
Город: 
Ростов-на-Дону
Дополнительная информация: 
Оператор: АО «Ростоваэроинвест». Международный инновационный аэропортовый комплекс «Платов» (первично именовался "Южный"). Позиционируется как крупнейший - после ввода в эксплуатацию, авиаузел юга России. Он должен стать 5-м по пассажиропотоку хабом в России (после Домодедово, Шереметьево, Пулково и Внуково).
Схемы аэропортов: 
Погода: 

Авиационная погода в Платове

Регион: 
Погода METAR: 
URRP 282200Z 33002MPS CAVOK 19/11 Q1013 R05/CLRD70 NOSIG RMK QFE755/1006
Время наблюдения
2022-06-28T22:00:00Z
Температура C
19.0
Точка росы
11.0
Направление ветра
330
Скорость ветра (узлы)
4
Метео видимость
6.21
Облачность
CAVOK
Нижняя граница облачности (футы)
Явления погоды
Условия полета
VFR
Аэропорт подробнее: 

Найти трансфер

С помощью этой формы Вы можете найти трансфер из аэропорта Платов в город, аэропорт или вокзал:

Погода в аэропортах:

Авиационная погода в Ханты-Мансийске

Регион: 
Погода METAR: 
USHH 282200Z 29001MPS 4400 -SHRA BR BKN003CB 10/10 Q0996 R24/290050 TEMPO 1000 SHRA BR OVC002CB
Время наблюдения
2022-06-28T22:00:00Z
Температура C
10.0
Точка росы
10.0
Направление ветра
290
Скорость ветра (узлы)
2
Метео видимость
2.73
Облачность
BKN
Нижняя граница облачности (футы)
300
Явления погоды
-SHRA BR
Условия полета
LIFR
Аэропорт подробнее: 
BKN – значительная (рассеянная, разорванная) облачность;
-SHRA - слабый ливневой дождь; BR – дымка (видимость от 1 до 9 км);

Авиационная погода в Кокшетау

Регион: 
Погода METAR: 
UACK 040530Z 07006MPS 9999 -RA OVC074 14/12 Q0999 NOSIG RMK QFE725/0967
Время наблюдения
2022-07-04T05:30:00Z
Температура C
14.0
Точка росы
12.0
Направление ветра
70
Скорость ветра (узлы)
12
Метео видимость
6.21
Облачность
OVC
Нижняя граница облачности (футы)
7400
Явления погоды
-RA
Условия полета
VFR
Аэропорт подробнее: 
OVC – сплошная облачность;
-RA - слабый дождь;

Авиационная погода в Игнатьево

Регион: 
Погода METAR: 
UHBB 282200Z 35002MPS 0150 0100W R36/M0200N FG VV002 18/18 Q1003 R36/090060 NOSIG RMK QBB060 QFE735/0980
Время наблюдения
2022-06-28T22:00:00Z
Температура C
18.0
Точка росы
18.0
Направление ветра
350
Скорость ветра (узлы)
4
Метео видимость
0.09
Облачность
OVX
Нижняя граница облачности (футы)
0
Явления погоды
FG
Условия полета
LIFR
Аэропорт подробнее: 
FG – туман (небо не видно, температура воздуха выше нуля или ноль);

Авиационная погода в Закаталы

Регион: 
Погода METAR: 
UBBY 040100Z 08014KT 5000 -SHRA SCT040CB OVC045 15/14 Q1019 NOSIG RMK MT OBSC
Время наблюдения
2022-07-04T01:00:00Z
Температура C
15.0
Точка росы
14.0
Направление ветра
80
Скорость ветра (узлы)
14
Метео видимость
3.11
Облачность
SCT
OVC
Нижняя граница облачности (футы)
4000
4500
Явления погоды
-SHRA
Условия полета
MVFR
SCT – разбросанная отдельная облачность; OVC – сплошная облачность;
-SHRA - слабый ливневой дождь;